createdAt,value
2022-12-11T00:01:00.615Z,95749.75
2022-12-11T00:03:27.044Z,95748.97
2022-12-11T04:07:51.288Z,95779.81
2022-12-11T04:10:17.704Z,95785.19
2022-12-11T04:12:44.072Z,95776.06
2022-12-11T04:15:10.769Z,95777.16
2022-12-11T04:17:37.399Z,95783.16
2022-12-11T04:20:03.774Z,95784.69
2022-12-11T04:22:30.154Z,95783.91
2022-12-11T04:24:56.521Z,95788.94
2022-12-11T04:27:22.897Z,95790.69
2022-12-11T04:29:49.263Z,95784.00
2022-12-11T04:32:15.649Z,95787.28
2022-12-11T04:34:42.029Z,95782.13
2022-12-11T04:37:08.399Z,95785.78
2022-12-11T04:39:34.762Z,95788.03
2022-12-11T04:42:01.146Z,95775.13
2022-12-11T04:44:27.524Z,95774.34
2022-12-11T04:46:53.889Z,95773.09
2022-12-11T04:49:20.276Z,95770.38
2022-12-11T04:51:46.670Z,95780.56
2022-12-11T04:54:13.062Z,95770.09
2022-12-11T04:56:39.454Z,95777.63
2022-12-11T04:59:05.820Z,95777.56
2022-12-11T05:01:32.256Z,95777.13
2022-12-11T05:03:58.642Z,95776.78
2022-12-11T05:06:25.019Z,95776.03
2022-12-11T05:08:51.403Z,95779.72
2022-12-11T05:11:17.805Z,95771.00
2022-12-11T05:13:44.241Z,95772.44
2022-12-11T05:16:10.633Z,95777.75
2022-12-11T05:18:37.068Z,95771.66
2022-12-11T05:21:03.460Z,95775.03
2022-12-11T05:23:29.822Z,95777.75
2022-12-11T05:25:56.202Z,95780.81
2022-12-11T05:28:22.582Z,95774.75
2022-12-11T05:30:48.955Z,95779.28
2022-12-11T05:33:15.333Z,95776.34
2022-12-11T05:35:41.695Z,95775.09
2022-12-11T05:38:08.081Z,95771.34
2022-12-11T05:40:34.458Z,95784.53
2022-12-11T05:43:00.837Z,95776.91
2022-12-11T05:45:27.218Z,95781.09
2022-12-11T05:47:53.586Z,95782.22
2022-12-11T05:50:19.966Z,95779.81
2022-12-11T05:52:46.338Z,95772.72
2022-12-11T05:55:12.979Z,95771.53
2022-12-11T05:57:39.611Z,95777.94
2022-12-11T06:00:05.998Z,95773.81
2022-12-11T06:02:32.435Z,95765.47
2022-12-11T06:04:58.859Z,95771.88
2022-12-11T06:07:25.249Z,95772.56
2022-12-11T06:09:51.646Z,95771.00
2022-12-11T06:12:17.998Z,95769.47
2022-12-11T06:14:44.410Z,95772.56
2022-12-11T06:17:10.791Z,95766.81
2022-12-11T06:19:37.352Z,95769.03
2022-12-11T06:22:03.730Z,95769.03
2022-12-11T06:24:30.085Z,95778.88
2022-12-11T06:26:56.452Z,95770.56
2022-12-11T06:29:22.813Z,95767.16
2022-12-11T06:31:49.195Z,95770.91
2022-12-11T06:34:15.579Z,95766.31
2022-12-11T06:36:42.024Z,95770.84
2022-12-11T06:39:08.391Z,95769.75
2022-12-11T06:41:34.756Z,95780.75
2022-12-11T06:44:01.114Z,95776.06
2022-12-11T06:46:27.507Z,95780.25
2022-12-11T06:48:53.934Z,95777.59
2022-12-11T06:51:20.291Z,95779.47
2022-12-11T06:53:46.659Z,95773.06
2022-12-11T06:56:13.033Z,95776.06
2022-12-11T06:58:39.407Z,95774.16
2022-12-11T07:01:05.879Z,95774.09
2022-12-11T07:03:32.289Z,95777.13
2022-12-11T07:05:58.765Z,95781.72
2022-12-11T07:08:25.185Z,95782.34
2022-12-11T07:10:51.624Z,95786.00
2022-12-11T07:13:17.990Z,95785.56
2022-12-11T07:15:44.366Z,95780.28
2022-12-11T07:18:10.742Z,95793.84
2022-12-11T07:20:37.111Z,95788.56
2022-12-11T07:23:03.513Z,95786.34
2022-12-11T07:25:29.872Z,95794.34
2022-12-11T07:27:56.244Z,95802.66
2022-12-11T07:30:22.627Z,95803.06
2022-12-11T07:32:49.035Z,95796.25
2022-12-11T07:35:15.419Z,95796.16
2022-12-11T07:37:41.790Z,95793.84
2022-12-11T07:40:08.163Z,95794.63
2022-12-11T07:42:34.536Z,95801.47
2022-12-11T07:45:00.891Z,95798.03
2022-12-11T07:47:27.267Z,95807.19
2022-12-11T07:49:53.652Z,95806.75
2022-12-11T07:52:20.011Z,95806.44
2022-12-11T07:54:46.390Z,95811.63
2022-12-11T07:57:14.343Z,95807.09
2022-12-11T07:59:40.868Z,95806.00
2022-12-11T08:02:07.353Z,95796.00
2022-12-11T08:04:33.763Z,95799.06
2022-12-11T08:07:00.130Z,95799.50
2022-12-11T08:09:26.505Z,95797.53
2022-12-11T08:11:52.957Z,95795.59
2022-12-11T08:14:19.329Z,95801.28
2022-12-11T08:16:45.722Z,95795.59
2022-12-11T08:19:12.127Z,95800.44
2022-12-11T08:21:38.502Z,95801.22
2022-12-11T08:24:04.877Z,95798.91
2022-12-11T08:26:31.249Z,95798.13
2022-12-11T08:28:57.603Z,95796.69
2022-12-11T08:31:23.987Z,95797.09
2022-12-11T08:33:50.346Z,95791.41
2022-12-11T08:36:16.721Z,95787.28
2022-12-11T08:38:43.101Z,95780.94
2022-12-11T08:41:09.458Z,95773.00
2022-12-11T08:43:35.830Z,95772.16
2022-12-11T08:46:02.277Z,95766.84
2022-12-11T08:48:28.746Z,95768.22
2022-12-11T08:50:55.111Z,95771.66
2022-12-11T08:53:21.471Z,95775.06
2022-12-11T08:55:47.843Z,95772.41
2022-12-11T08:58:14.465Z,95766.03
2022-12-11T09:00:40.843Z,95760.38
2022-12-11T09:03:12.507Z,95759.63
2022-12-11T09:05:39.233Z,95754.31
2022-12-11T09:08:05.678Z,95756.19
2022-12-11T09:10:32.065Z,95750.97
2022-12-11T09:12:58.430Z,95754.59
2022-12-11T09:15:24.817Z,95762.59
2022-12-11T09:17:51.235Z,95759.88
2022-12-11T09:20:17.612Z,95755.34
2022-12-11T09:22:43.983Z,95758.41
2022-12-11T09:25:10.679Z,95758.41
2022-12-11T09:27:37.359Z,95765.59
2022-12-11T09:30:03.750Z,95764.47
2022-12-11T09:32:30.122Z,95763.81
2022-12-11T09:34:56.491Z,95766.69
2022-12-11T09:37:22.861Z,95762.16
2022-12-11T09:39:49.248Z,95759.50
2022-12-11T09:42:15.639Z,95753.81
2022-12-11T09:44:42.025Z,95751.56
2022-12-11T09:47:08.405Z,95759.19
2022-12-11T09:49:34.774Z,95756.97
2022-12-11T09:52:01.139Z,95758.75
2022-12-11T09:54:27.535Z,95763.38
2022-12-11T09:56:53.906Z,95758.75
2022-12-11T09:59:20.286Z,95756.88
2022-12-11T10:01:46.704Z,95750.91
2022-12-11T10:04:13.118Z,95750.56
2022-12-11T10:06:39.593Z,95746.78
2022-12-11T10:09:05.966Z,95738.16
2022-12-11T10:11:32.355Z,95735.19
2022-12-11T10:13:58.739Z,95732.19
2022-12-11T10:16:25.121Z,95735.53
2022-12-11T10:18:51.506Z,95729.38
2022-12-11T10:21:17.888Z,95735.03
2022-12-11T10:23:44.278Z,95727.09
2022-12-11T10:26:10.678Z,95717.06
2022-12-11T10:28:37.069Z,95713.72
2022-12-11T10:31:03.513Z,95711.44
2022-12-11T10:33:29.936Z,95708.78
2022-12-11T10:35:56.322Z,95711.06
2022-12-11T10:38:22.709Z,95712.53
2022-12-11T10:40:49.099Z,95711.84
2022-12-11T10:43:15.476Z,95728.16
2022-12-11T10:45:41.834Z,95724.31
2022-12-11T10:48:08.231Z,95719.78
2022-12-11T10:50:34.613Z,95724.75
2022-12-11T10:53:01.010Z,95717.91
2022-12-11T10:55:27.489Z,95725.84
2022-12-11T10:57:53.871Z,95723.56
2022-12-11T11:00:20.296Z,95717.56
2022-12-11T11:02:46.710Z,95709.47
2022-12-11T11:05:13.460Z,95711.38
2022-12-11T11:07:40.066Z,95707.19
2022-12-11T11:10:06.460Z,95710.16
2022-12-11T11:12:32.828Z,95717.59
2022-12-11T11:14:59.229Z,95708.97
2022-12-11T11:17:28.463Z,95716.91
2022-12-11T11:19:57.129Z,95713.09
2022-12-11T11:22:23.539Z,95708.19
2022-12-11T11:24:49.925Z,95706.66
2022-12-11T11:27:16.303Z,95700.69
2022-12-11T11:29:42.663Z,95702.50
2022-12-11T11:32:09.057Z,95688.56
2022-12-11T11:34:35.453Z,95689.16
2022-12-11T11:37:01.854Z,95680.88
2022-12-11T11:39:28.251Z,95679.34
2022-12-11T11:41:54.619Z,95676.00
2022-12-11T11:44:21.035Z,95665.66
2022-12-11T11:46:47.652Z,95665.31
2022-12-11T11:49:14.136Z,95667.19
2022-12-11T11:51:40.506Z,95670.72
2022-12-11T11:54:06.903Z,95665.31
2022-12-11T11:56:33.280Z,95665.00
2022-12-11T11:58:59.674Z,95662.69
2022-12-11T12:01:26.070Z,95675.16
2022-12-11T12:03:52.465Z,95666.03
2022-12-11T12:06:18.830Z,95668.75
2022-12-11T12:08:45.323Z,95659.25
2022-12-11T12:11:11.694Z,95656.63
2022-12-11T12:13:49.597Z,95664.22
2022-12-11T12:16:50.459Z,95662.69
2022-12-11T12:19:02.763Z,95656.97
2022-12-11T12:21:29.135Z,95656.97
2022-12-11T12:23:55.503Z,95656.63
2022-12-11T12:26:21.891Z,95650.16
2022-12-11T12:28:48.281Z,95650.91
2022-12-11T12:31:14.803Z,95655.00
2022-12-11T12:33:41.209Z,95644.09
2022-12-11T12:36:07.602Z,95639.88
2022-12-11T12:38:34.013Z,95640.16
2022-12-11T12:41:00.415Z,95640.94
2022-12-11T12:43:26.782Z,95645.38
2022-12-11T12:45:53.326Z,95642.75
2022-12-11T12:48:19.898Z,95650.69
2022-12-11T12:50:46.287Z,95649.13
2022-12-11T12:53:12.681Z,95643.84
2022-12-11T12:55:39.057Z,95643.84
2022-12-11T12:58:05.446Z,95640.44
2022-12-11T13:00:31.823Z,95645.38
2022-12-11T13:02:58.200Z,95642.31
2022-12-11T13:05:24.595Z,95643.84
2022-12-11T13:07:54.200Z,95637.00
2022-12-11T13:10:21.014Z,95637.28
2022-12-11T13:12:47.384Z,95625.59
2022-12-11T13:15:13.929Z,95630.94
2022-12-11T13:17:40.315Z,95623.44
2022-12-11T13:20:06.696Z,95627.59
2022-12-11T13:22:33.094Z,95631.13
2022-12-11T13:24:59.463Z,95641.09
2022-12-11T13:27:25.857Z,95636.13
2022-12-11T13:29:52.246Z,95647.66
2022-12-11T13:32:18.628Z,95638.94
2022-12-11T13:34:44.991Z,95646.25
2022-12-11T13:37:11.374Z,95634.97
2022-12-11T13:39:37.758Z,95637.56
2022-12-11T13:42:04.138Z,95642.50
2022-12-11T13:44:30.510Z,95638.47
2022-12-11T13:46:56.889Z,95638.41
2022-12-11T13:49:23.274Z,95645.31
2022-12-11T13:51:49.672Z,95640.44
2022-12-11T13:54:17.196Z,95643.50
2022-12-11T13:56:44.036Z,95643.16
2022-12-11T13:59:10.420Z,95633.38
2022-12-11T14:01:36.802Z,95628.88
2022-12-11T14:04:03.206Z,95624.00
2022-12-11T14:06:29.594Z,95633.88
2022-12-11T14:08:55.958Z,95623.28
2022-12-11T14:11:22.339Z,95622.59
2022-12-11T14:13:48.826Z,95630.91
2022-12-11T14:16:15.260Z,95625.25
2022-12-11T14:18:41.663Z,95632.84
2022-12-11T14:21:08.108Z,95627.19
2022-12-11T14:23:34.474Z,95629.16
2022-12-11T14:26:00.943Z,95630.00
2022-12-11T14:28:27.321Z,95631.53
2022-12-11T14:30:53.720Z,95631.25
2022-12-11T14:33:20.118Z,95634.25
2022-12-11T14:35:46.540Z,95641.84
2022-12-11T14:38:12.955Z,95637.66
2022-12-11T14:40:39.357Z,95635.97
2022-12-11T14:43:05.744Z,95635.97
2022-12-11T14:45:32.197Z,95641.69
2022-12-11T14:47:58.595Z,95631.47
2022-12-11T14:50:25.043Z,95634.91
2022-12-11T14:52:51.441Z,95637.56
2022-12-11T14:55:17.811Z,95636.44
2022-12-11T14:57:44.201Z,95636.09
2022-12-11T15:00:11.024Z,95637.22
2022-12-11T15:02:37.592Z,95640.50
2022-12-11T15:05:04.005Z,95639.81
2022-12-11T15:07:30.395Z,95636.91
2022-12-11T15:09:56.783Z,95641.31
2022-12-11T15:12:23.171Z,95633.50
2022-12-11T15:14:49.550Z,95635.00
2022-12-11T15:17:15.929Z,95640.78
2022-12-11T15:19:42.334Z,95642.28
2022-12-11T15:22:08.777Z,95643.81
2022-12-11T15:24:35.188Z,95643.81
2022-12-11T15:27:01.563Z,95642.38
2022-12-11T15:29:27.938Z,95645.84
2022-12-11T15:31:54.330Z,95640.88
2022-12-11T15:34:20.698Z,95651.22
2022-12-11T15:36:47.158Z,95651.22
2022-12-11T15:39:13.530Z,95655.06
2022-12-11T15:41:39.891Z,95643.00
2022-12-11T15:44:06.282Z,95647.59
2022-12-11T15:46:32.745Z,95650.66
2022-12-11T15:48:59.160Z,95657.13
2022-12-11T15:51:25.550Z,95656.78
2022-12-11T15:53:51.937Z,95651.97
2022-12-11T15:56:18.328Z,95653.16
2022-12-11T15:58:44.695Z,95651.97
2022-12-11T16:01:11.093Z,95656.19
2022-12-11T16:03:37.518Z,95656.16
2022-12-11T16:06:03.907Z,95665.75
2022-12-11T16:08:30.317Z,95661.16
2022-12-11T16:10:56.731Z,95659.72
2022-12-11T16:13:23.126Z,95659.81
2022-12-11T16:15:49.531Z,95657.94
2022-12-11T16:18:15.930Z,95651.94
2022-12-11T16:20:42.323Z,95655.34
2022-12-11T16:23:08.705Z,95650.88
2022-12-11T16:25:35.079Z,95650.53
2022-12-11T16:28:01.476Z,95653.94
2022-12-11T16:30:27.862Z,95655.88
2022-12-11T16:32:54.241Z,95649.75
2022-12-11T16:35:20.616Z,95660.41
2022-12-11T16:37:46.979Z,95655.06
2022-12-11T16:40:13.378Z,95654.63
2022-12-11T16:42:39.751Z,95654.97
2022-12-11T16:45:06.138Z,95656.88
2022-12-11T16:47:32.527Z,95658.06
2022-12-11T16:49:58.967Z,95656.13
2022-12-11T16:52:25.430Z,95656.59
2022-12-11T16:54:51.837Z,95651.63
2022-12-11T16:57:18.221Z,95648.63
2022-12-11T16:59:44.598Z,95649.38
2022-12-11T17:02:10.986Z,95652.50
2022-12-11T17:04:37.347Z,95652.59
2022-12-11T17:07:03.725Z,95653.75
2022-12-11T17:09:30.108Z,95660.97
2022-12-11T17:11:56.501Z,95649.63
2022-12-11T17:14:22.871Z,95657.31
2022-12-11T17:16:49.255Z,95657.28
2022-12-11T17:19:15.660Z,95664.34
2022-12-11T17:21:45.815Z,95669.66
2022-12-11T17:24:14.947Z,95662.44
2022-12-11T17:26:41.319Z,95664.25
2022-12-11T17:29:07.683Z,95654.88
2022-12-11T17:31:34.235Z,95658.09
2022-12-11T17:34:00.648Z,95657.28
2022-12-11T17:36:27.042Z,95657.44
2022-12-11T17:38:53.447Z,95662.09
2022-12-11T17:41:20.981Z,95664.81
2022-12-11T17:43:47.572Z,95658.72
2022-12-11T17:46:13.997Z,95665.88
2022-12-11T17:48:40.453Z,95664.38
2022-12-11T17:51:06.857Z,95668.28
2022-12-11T17:53:33.244Z,95666.81
2022-12-11T17:55:59.671Z,95665.22
2022-12-11T17:58:26.069Z,95661.03
2022-12-11T18:00:52.459Z,95658.34
2022-12-11T18:03:18.931Z,95662.09
2022-12-11T18:05:45.335Z,95658.34
2022-12-11T18:08:11.758Z,95662.91
2022-12-11T18:10:38.204Z,95668.28
2022-12-11T18:13:04.605Z,95672.13
2022-12-11T18:15:31.005Z,95678.97
2022-12-11T18:17:57.392Z,95673.31
2022-12-11T18:20:23.826Z,95672.94
2022-12-11T18:22:50.270Z,95673.78
2022-12-11T18:25:16.833Z,95673.78
2022-12-11T18:27:43.346Z,95678.72
2022-12-11T18:30:09.740Z,95668.53
2022-12-11T18:32:36.133Z,95679.16
2022-12-11T18:35:02.526Z,95676.16
2022-12-11T18:37:28.907Z,95683.44
2022-12-11T18:39:55.306Z,95683.91
2022-12-11T18:42:32.797Z,95677.69
2022-12-11T18:44:59.990Z,95679.34
2022-12-11T18:47:26.356Z,95681.94
2022-12-11T18:49:52.745Z,95678.94
2022-12-11T18:52:19.130Z,95679.75
2022-12-11T18:54:45.514Z,95683.59
2022-12-11T18:57:11.895Z,95685.94
2022-12-11T18:59:38.268Z,95688.25
2022-12-11T19:02:04.709Z,95687.81
2022-12-11T19:04:31.115Z,95692.53
2022-12-11T19:06:57.494Z,95693.19
2022-12-11T19:09:23.865Z,95691.03
2022-12-11T19:11:50.238Z,95698.94
2022-12-11T19:14:16.618Z,95707.69
2022-12-11T19:16:43.016Z,95700.84
2022-12-11T19:19:09.398Z,95691.81
2022-12-11T19:21:35.787Z,95706.56
2022-12-11T19:24:02.174Z,95694.50
2022-12-11T19:26:28.556Z,95702.53
2022-12-11T19:28:54.934Z,95693.44
2022-12-11T19:31:21.371Z,95704.03
2022-12-11T19:33:47.765Z,95693.06
2022-12-11T19:36:14.151Z,95693.06
2022-12-11T19:38:40.554Z,95687.13
2022-12-11T19:41:06.939Z,95690.19
2022-12-11T19:43:33.307Z,95683.81
2022-12-11T19:45:59.683Z,95685.38
2022-12-11T19:48:26.054Z,95687.41
2022-12-11T19:50:52.421Z,95684.09
2022-12-11T19:53:18.798Z,95688.53
2022-12-11T19:55:45.163Z,95684.59
2022-12-11T19:58:11.537Z,95685.03
2022-12-11T20:00:37.989Z,95682.38
2022-12-11T20:03:04.398Z,95687.25
2022-12-11T20:05:30.874Z,95688.03
2022-12-11T20:08:05.386Z,95686.28
2022-12-11T20:10:40.874Z,95686.63
2022-12-11T20:13:07.257Z,95690.81
2022-12-11T20:15:33.631Z,95692.81
2022-12-11T20:18:00.033Z,95700.75
2022-12-11T20:20:26.413Z,95694.38
2022-12-11T20:22:52.785Z,95697.34
2022-12-11T20:25:19.194Z,95686.75
2022-12-11T20:27:45.657Z,95692.78
2022-12-11T20:30:12.016Z,95698.13
2022-12-11T20:32:38.380Z,95689.41
2022-12-11T20:35:04.756Z,95689.03
2022-12-11T20:37:31.122Z,95693.56
2022-12-11T20:39:57.494Z,95698.81
2022-12-11T20:42:23.886Z,95693.25
2022-12-11T20:44:50.254Z,95697.09
2022-12-11T20:47:16.658Z,95698.56
2022-12-11T20:49:43.016Z,95695.63
2022-12-11T20:52:09.375Z,95699.00
2022-12-11T20:54:35.762Z,95691.06
2022-12-11T20:57:02.124Z,95683.53
2022-12-11T20:59:28.478Z,95685.72
2022-12-11T21:01:54.943Z,95683.09
2022-12-11T21:04:21.363Z,95681.59
2022-12-11T21:06:47.738Z,95687.72
2022-12-11T21:09:14.097Z,95688.41
2022-12-11T21:11:40.535Z,95681.59
2022-12-11T21:14:06.922Z,95679.31
2022-12-11T21:16:33.324Z,95687.34
2022-12-11T21:18:59.729Z,95690.41
2022-12-11T21:21:26.102Z,95679.03
2022-12-11T21:23:52.465Z,95677.19
2022-12-11T21:26:18.831Z,95681.03
2022-12-11T21:28:45.213Z,95682.91
2022-12-11T21:31:11.602Z,95687.16
2022-12-11T21:33:37.965Z,95689.03
2022-12-11T21:36:04.319Z,95686.38
2022-12-11T21:38:30.700Z,95683.03
2022-12-11T21:40:57.062Z,95681.03
2022-12-11T21:43:23.448Z,95683.69
2022-12-11T21:46:00.926Z,95683.31
2022-12-11T21:48:28.029Z,95678.03
2022-12-11T21:50:54.392Z,95678.84
2022-12-11T21:53:20.773Z,95677.72
2022-12-11T21:55:47.132Z,95679.63
2022-12-11T21:58:13.497Z,95685.28
2022-12-11T22:00:39.999Z,95670.09
2022-12-11T22:03:06.414Z,95673.53
2022-12-11T22:05:32.799Z,95679.25
2022-12-11T22:07:59.207Z,95678.47
2022-12-11T22:10:25.620Z,95679.59
2022-12-11T22:12:51.982Z,95676.16
2022-12-11T22:15:18.354Z,95680.03
2022-12-11T22:17:44.725Z,95690.59
2022-12-11T22:20:11.100Z,95689.81
2022-12-11T22:22:37.507Z,95686.38
2022-12-11T22:25:03.884Z,95689.38
2022-12-11T22:27:30.244Z,95689.88
2022-12-11T22:29:56.618Z,95689.06
2022-12-11T22:32:23.011Z,95686.38
2022-12-11T22:34:49.393Z,95688.25
2022-12-11T22:37:15.750Z,95686.28
2022-12-11T22:39:42.122Z,95697.69
2022-12-11T22:42:08.495Z,95694.31
2022-12-11T22:44:34.851Z,95691.97
2022-12-11T22:47:01.243Z,95688.94
2022-12-11T22:49:27.625Z,95702.16
2022-12-11T22:51:54.030Z,95698.81
2022-12-11T22:54:20.393Z,95699.94
2022-12-11T22:56:46.765Z,95695.78
2022-12-11T22:59:13.132Z,95698.38
2022-12-11T23:01:39.503Z,95698.03
2022-12-11T23:04:05.881Z,95697.59
2022-12-11T23:06:32.250Z,95696.03
2022-12-11T23:08:58.697Z,95697.13
2022-12-11T23:11:25.151Z,95703.59
2022-12-11T23:13:51.536Z,95704.03
2022-12-11T23:16:17.970Z,95694.88
2022-12-11T23:18:44.361Z,95698.25
2022-12-11T23:21:10.734Z,95701.38
2022-12-11T23:23:37.110Z,95696.81
2022-12-11T23:26:03.486Z,95697.25
2022-12-11T23:28:29.881Z,95701.69
2022-12-11T23:30:56.274Z,95701.38
2022-12-11T23:33:22.670Z,95705.53
2022-12-11T23:35:49.046Z,95703.22
2022-12-11T23:38:15.423Z,95702.88
2022-12-11T23:40:41.788Z,95700.91
2022-12-11T23:43:08.170Z,95701.94
2022-12-11T23:45:34.574Z,95705.13
2022-12-11T23:48:00.950Z,95699.38
2022-12-11T23:50:27.324Z,95705.00
2022-12-11T23:52:53.694Z,95701.22
2022-12-11T23:55:20.061Z,95714.94
2022-12-11T23:57:46.426Z,95714.25
